sensor_id;sensor_type;location;lat;lon;timestamp;temperature;humidity
4811;DHT22;2419;51.276;6.472;2023-03-01T00:01:18;-0.50;99.90
4811;DHT22;2419;51.276;6.472;2023-03-01T00:03:47;-0.40;99.90
4811;DHT22;2419;51.276;6.472;2023-03-01T00:06:15;-0.40;99.90
4811;DHT22;2419;51.276;6.472;2023-03-01T00:08:44;-0.40;99.90
4811;DHT22;2419;51.276;6.472;2023-03-01T00:11:14;-0.60;99.90
4811;DHT22;2419;51.276;6.472;2023-03-01T00:13:44;-0.70;99.90
4811;DHT22;2419;51.276;6.472;2023-03-01T00:16:16;-0.70;99.90
4811;DHT22;2419;51.276;6.472;2023-03-01T00:18:45;-0.60;99.90
4811;DHT22;2419;51.276;6.472;2023-03-01T00:21:13;-0.50;99.90
4811;DHT22;2419;51.276;6.472;2023-03-01T00:23:41;-0.50;99.90
4811;DHT22;2419;51.276;6.472;2023-03-01T00:26:12;-0.50;99.90
4811;DHT22;2419;51.276;6.472;2023-03-01T00:28:42;-0.50;99.90
4811;DHT22;2419;51.276;6.472;2023-03-01T00:31:13;-0.60;99.90
4811;DHT22;2419;51.276;6.472;2023-03-01T00:33:43;-0.70;99.90
4811;DHT22;2419;51.276;6.472;2023-03-01T00:36:14;-0.80;99.90
4811;DHT22;2419;51.276;6.472;2023-03-01T00:38:44;-0.90;99.90
4811;DHT22;2419;51.276;6.472;2023-03-01T00:41:13;-0.90;99.90
4811;DHT22;2419;51.276;6.472;2023-03-01T00:43:43;-0.80;99.90
4811;DHT22;2419;51.276;6.472;2023-03-01T00:46:14;-0.70;99.90
4811;DHT22;2419;51.276;6.472;2023-03-01T00:48:45;-0.60;99.90
4811;DHT22;2419;51.276;6.472;2023-03-01T00:51:15;-0.50;99.90
4811;DHT22;2419;51.276;6.472;2023-03-01T00:53:45;-0.60;99.90
4811;DHT22;2419;51.276;6.472;2023-03-01T00:56:14;-0.70;99.90
4811;DHT22;2419;51.276;6.472;2023-03-01T00:58:43;-0.70;99.90
4811;DHT22;2419;51.276;6.472;2023-03-01T01:01:13;-0.80;99.90
4811;DHT22;2419;51.276;6.472;2023-03-01T01:03:48;-0.80;99.90
4811;DHT22;2419;51.276;6.472;2023-03-01T01:06:18;-1.00;99.90
4811;DHT22;2419;51.276;6.472;2023-03-01T01:08:47;-1.10;99.90
4811;DHT22;2419;51.276;6.472;2023-03-01T01:11:16;-1.10;99.90
4811;DHT22;2419;51.276;6.472;2023-03-01T01:13:44;-1.20;99.90
4811;DHT22;2419;51.276;6.472;2023-03-01T01:16:16;-1.10;99.90
4811;DHT22;2419;51.276;6.472;2023-03-01T01:18:47;-1.20;99.90
4811;DHT22;2419;51.276;6.472;2023-03-01T01:21:16;-1.30;99.90
4811;DHT22;2419;51.276;6.472;2023-03-01T01:23:46;-1.40;99.90
4811;DHT22;2419;51.276;6.472;2023-03-01T01:26:15;-1.40;99.90
4811;DHT22;2419;51.276;6.472;2023-03-01T01:28:44;-1.40;99.90
4811;DHT22;2419;51.276;6.472;2023-03-01T01:31:13;-1.40;99.90
4811;DHT22;2419;51.276;6.472;2023-03-01T01:33:42;-1.50;99.90
4811;DHT22;2419;51.276;6.472;2023-03-01T01:36:11;-1.50;99.90
4811;DHT22;2419;51.276;6.472;2023-03-01T01:38:40;-1.40;99.90
4811;DHT22;2419;51.276;6.472;2023-03-01T01:41:10;-1.40;99.90
4811;DHT22;2419;51.276;6.472;2023-03-01T01:43:41;-1.40;99.90
4811;DHT22;2419;51.276;6.472;2023-03-01T01:46:17;-1.50;99.90
4811;DHT22;2419;51.276;6.472;2023-03-01T01:48:52;-1.50;99.90
4811;DHT22;2419;51.276;6.472;2023-03-01T01:51:25;-1.60;99.90
4811;DHT22;2419;51.276;6.472;2023-03-01T01:53:59;-1.60;99.90
4811;DHT22;2419;51.276;6.472;2023-03-01T01:56:29;-1.60;99.90
4811;DHT22;2419;51.276;6.472;2023-03-01T01:58:58;-1.70;99.90
4811;DHT22;2419;51.276;6.472;2023-03-01T02:01:26;-1.70;99.90
4811;DHT22;2419;51.276;6.472;2023-03-01T02:03:54;-1.70;99.90
4811;DHT22;2419;51.276;6.472;2023-03-01T02:06:28;-1.70;99.90
4811;DHT22;2419;51.276;6.472;2023-03-01T02:09:01;-1.70;99.90
4811;DHT22;2419;51.276;6.472;2023-03-01T02:11:31;-1.80;99.90
4811;DHT22;2419;51.276;6.472;2023-03-01T02:14:00;-1.80;99.90
4811;DHT22;2419;51.276;6.472;2023-03-01T02:16:28;-1.90;99.90
4811;DHT22;2419;51.276;6.472;2023-03-01T02:18:58;-2.00;99.90
4811;DHT22;2419;51.276;6.472;2023-03-01T02:21:37;-1.90;99.90
4811;DHT22;2419;51.276;6.472;2023-03-01T02:24:21;-1.90;99.90
4811;DHT22;2419;51.276;6.472;2023-03-01T02:26:56;-1.90;99.90
4811;DHT22;2419;51.276;6.472;2023-03-01T02:29:28;-2.00;99.90
4811;DHT22;2419;51.276;6.472;2023-03-01T02:31:58;-2.00;99.90
4811;DHT22;2419;51.276;6.472;2023-03-01T02:34:28;-1.90;99.90
4811;DHT22;2419;51.276;6.472;2023-03-01T02:37:01;-1.80;99.90
4811;DHT22;2419;51.276;6.472;2023-03-01T02:39:35;-1.80;99.90
4811;DHT22;2419;51.276;6.472;2023-03-01T02:42:11;-1.80;99.90
4811;DHT22;2419;51.276;6.472;2023-03-01T02:44:41;-1.80;99.90
4811;DHT22;2419;51.276;6.472;2023-03-01T02:47:09;-1.90;99.90
4811;DHT22;2419;51.276;6.472;2023-03-01T02:49:37;-1.90;99.90
4811;DHT22;2419;51.276;6.472;2023-03-01T02:52:34;-1.70;99.90
4811;DHT22;2419;51.276;6.472;2023-03-01T02:55:09;-1.80;99.90
4811;DHT22;2419;51.276;6.472;2023-03-01T02:57:40;-1.80;99.90
4811;DHT22;2419;51.276;6.472;2023-03-01T03:00:14;-1.90;99.90
4811;DHT22;2419;51.276;6.472;2023-03-01T03:02:47;-1.90;99.90
4811;DHT22;2419;51.276;6.472;2023-03-01T03:05:22;-2.00;99.90
4811;DHT22;2419;51.276;6.472;2023-03-01T03:07:53;-2.00;99.90
4811;DHT22;2419;51.276;6.472;2023-03-01T03:10:24;-2.10;99.90
4811;DHT22;2419;51.276;6.472;2023-03-01T03:12:55;-2.20;99.90
4811;DHT22;2419;51.276;6.472;2023-03-01T03:15:26;-2.20;99.90
4811;DHT22;2419;51.276;6.472;2023-03-01T03:17:57;-2.20;99.90
4811;DHT22;2419;51.276;6.472;2023-03-01T03:20:27;-2.10;99.90
4811;DHT22;2419;51.276;6.472;2023-03-01T03:22:56;-2.10;99.90
4811;DHT22;2419;51.276;6.472;2023-03-01T03:25:29;-2.20;99.90
4811;DHT22;2419;51.276;6.472;2023-03-01T03:27:57;-2.20;99.90
4811;DHT22;2419;51.276;6.472;2023-03-01T03:30:29;-2.20;99.90
4811;DHT22;2419;51.276;6.472;2023-03-01T03:32:58;-2.30;99.90
4811;DHT22;2419;51.276;6.472;2023-03-01T03:35:28;-2.30;99.90
4811;DHT22;2419;51.276;6.472;2023-03-01T03:37:58;-2.30;99.90
4811;DHT22;2419;51.276;6.472;2023-03-01T03:40:31;-2.30;99.90
4811;DHT22;2419;51.276;6.472;2023-03-01T03:43:00;-2.30;99.90
4811;DHT22;2419;51.276;6.472;2023-03-01T03:45:30;-2.20;99.90
4811;DHT22;2419;51.276;6.472;2023-03-01T03:48:00;-2.20;99.90
4811;DHT22;2419;51.276;6.472;2023-03-01T03:50:29;-2.20;99.90
4811;DHT22;2419;51.276;6.472;2023-03-01T03:52:57;-2.20;99.90
4811;DHT22;2419;51.276;6.472;2023-03-01T03:55:25;-2.30;99.90
4811;DHT22;2419;51.276;6.472;2023-03-01T03:57:58;-2.30;99.90
4811;DHT22;2419;51.276;6.472;2023-03-01T04:00:30;-2.30;99.90
4811;DHT22;2419;51.276;6.472;2023-03-01T04:02:59;-2.30;99.90
4811;DHT22;2419;51.276;6.472;2023-03-01T04:05:28;-2.40;99.90
4811;DHT22;2419;51.276;6.472;2023-03-01T04:07:57;-2.40;99.90
4811;DHT22;2419;51.276;6.472;2023-03-01T04:10:35;-2.40;99.90
4811;DHT22;2419;51.276;6.472;2023-03-01T04:13:04;-2.40;99.90
4811;DHT22;2419;51.276;6.472;2023-03-01T04:15:35;-2.50;99.90
4811;DHT22;2419;51.276;6.472;2023-03-01T04:18:03;-2.40;99.90
4811;DHT22;2419;51.276;6.472;2023-03-01T04:20:33;-2.40;99.90
4811;DHT22;2419;51.276;6.472;2023-03-01T04:23:05;-2.40;99.90
4811;DHT22;2419;51.276;6.472;2023-03-01T04:25:42;-2.50;99.90
4811;DHT22;2419;51.276;6.472;2023-03-01T04:28:10;-2.40;99.90
4811;DHT22;2419;51.276;6.472;2023-03-01T04:30:40;-2.40;99.90
4811;DHT22;2419;51.276;6.472;2023-03-01T04:33:09;-2.40;99.90
4811;DHT22;2419;51.276;6.472;2023-03-01T04:35:38;-2.40;99.90
4811;DHT22;2419;51.276;6.472;2023-03-01T04:38:07;-2.40;99.90
4811;DHT22;2419;51.276;6.472;2023-03-01T04:40:36;-2.40;99.90
4811;DHT22;2419;51.276;6.472;2023-03-01T04:43:04;-2.40;99.90
4811;DHT22;2419;51.276;6.472;2023-03-01T04:45:33;-2.40;99.90
4811;DHT22;2419;51.276;6.472;2023-03-01T04:48:04;-2.40;99.90
4811;DHT22;2419;51.276;6.472;2023-03-01T04:50:33;-2.40;99.90
4811;DHT22;2419;51.276;6.472;2023-03-01T04:53:01;-2.40;99.90
4811;DHT22;2419;51.276;6.472;2023-03-01T04:55:30;-2.40;99.90
4811;DHT22;2419;51.276;6.472;2023-03-01T04:57:58;-2.40;99.90
4811;DHT22;2419;51.276;6.472;2023-03-01T05:00:26;-2.40;99.90
4811;DHT22;2419;51.276;6.472;2023-03-01T05:02:57;-2.40;99.90
4811;DHT22;2419;51.276;6.472;2023-03-01T05:05:29;-2.20;99.90
4811;DHT22;2419;51.276;6.472;2023-03-01T05:07:59;-2.30;99.90
4811;DHT22;2419;51.276;6.472;2023-03-01T05:10:29;-2.20;99.90
4811;DHT22;2419;51.276;6.472;2023-03-01T05:12:58;-2.30;99.90
4811;DHT22;2419;51.276;6.472;2023-03-01T05:15:28;-2.30;99.90
4811;DHT22;2419;51.276;6.472;2023-03-01T05:17:58;-2.30;99.90
4811;DHT22;2419;51.276;6.472;2023-03-01T05:20:29;-2.20;99.90
4811;DHT22;2419;51.276;6.472;2023-03-01T05:22:59;-2.30;99.90
4811;DHT22;2419;51.276;6.472;2023-03-01T05:25:33;-2.40;99.90
4811;DHT22;2419;51.276;6.472;2023-03-01T05:28:02;-2.50;99.90
4811;DHT22;2419;51.276;6.472;2023-03-01T05:30:33;-2.40;99.90
4811;DHT22;2419;51.276;6.472;2023-03-01T05:33:01;-2.40;99.90
4811;DHT22;2419;51.276;6.472;2023-03-01T05:35:32;-2.50;99.90
4811;DHT22;2419;51.276;6.472;2023-03-01T05:38:01;-2.40;99.90
4811;DHT22;2419;51.276;6.472;2023-03-01T05:40:29;-2.50;99.90
4811;DHT22;2419;51.276;6.472;2023-03-01T05:42:57;-2.50;99.90
4811;DHT22;2419;51.276;6.472;2023-03-01T05:45:26;-2.60;99.90
4811;DHT22;2419;51.276;6.472;2023-03-01T05:47:55;-2.60;99.90
4811;DHT22;2419;51.276;6.472;2023-03-01T05:50:24;-2.60;99.90
4811;DHT22;2419;51.276;6.472;2023-03-01T05:52:58;-2.60;99.90
4811;DHT22;2419;51.276;6.472;2023-03-01T05:55:28;-2.60;99.90
4811;DHT22;2419;51.276;6.472;2023-03-01T05:57:59;-2.60;99.90
4811;DHT22;2419;51.276;6.472;2023-03-01T06:00:29;-2.70;99.90
4811;DHT22;2419;51.276;6.472;2023-03-01T06:02:58;-2.60;99.90
4811;DHT22;2419;51.276;6.472;2023-03-01T06:05:27;-2.50;99.90
4811;DHT22;2419;51.276;6.472;2023-03-01T06:07:58;-2.50;99.90
4811;DHT22;2419;51.276;6.472;2023-03-01T06:10:27;-2.40;99.90
4811;DHT22;2419;51.276;6.472;2023-03-01T06:12:56;-2.30;99.90
4811;DHT22;2419;51.276;6.472;2023-03-01T06:15:25;-2.20;99.90
4811;DHT22;2419;51.276;6.472;2023-03-01T06:17:54;-2.10;99.90
4811;DHT22;2419;51.276;6.472;2023-03-01T06:20:27;-2.10;99.90
4811;DHT22;2419;51.276;6.472;2023-03-01T06:22:59;-2.10;99.90
4811;DHT22;2419;51.276;6.472;2023-03-01T06:25:28;-2.10;99.90
4811;DHT22;2419;51.276;6.472;2023-03-01T06:27:56;-2.10;99.90
4811;DHT22;2419;51.276;6.472;2023-03-01T06:30:26;-2.10;99.90
4811;DHT22;2419;51.276;6.472;2023-03-01T06:32:54;-2.10;99.90
4811;DHT22;2419;51.276;6.472;2023-03-01T06:35:30;-2.10;99.90
4811;DHT22;2419;51.276;6.472;2023-03-01T06:38:00;-2.10;99.90
4811;DHT22;2419;51.276;6.472;2023-03-01T06:40:29;-2.00;99.90
4811;DHT22;2419;51.276;6.472;2023-03-01T06:42:58;-1.90;99.90
4811;DHT22;2419;51.276;6.472;2023-03-01T06:45:26;-1.10;99.90
4811;DHT22;2419;51.276;6.472;2023-03-01T06:48:02;-0.30;99.90
4811;DHT22;2419;51.276;6.472;2023-03-01T06:50:31;0.40;99.90
4811;DHT22;2419;51.276;6.472;2023-03-01T06:53:02;0.90;99.90
4811;DHT22;2419;51.276;6.472;2023-03-01T06:55:30;1.70;99.90
4811;DHT22;2419;51.276;6.472;2023-03-01T06:57:59;2.30;99.90
4811;DHT22;2419;51.276;6.472;2023-03-01T07:00:27;2.50;99.90
4811;DHT22;2419;51.276;6.472;2023-03-01T07:02:58;1.50;99.90
4811;DHT22;2419;51.276;6.472;2023-03-01T07:05:28;0.80;99.90
4811;DHT22;2419;51.276;6.472;2023-03-01T07:07:57;0.40;99.90
4811;DHT22;2419;51.276;6.472;2023-03-01T07:10:28;0.00;99.90
4811;DHT22;2419;51.276;6.472;2023-03-01T07:12:57;-0.20;99.90
4811;DHT22;2419;51.276;6.472;2023-03-01T07:15:26;-0.10;99.90
4811;DHT22;2419;51.276;6.472;2023-03-01T07:17:56;1.20;99.90
4811;DHT22;2419;51.276;6.472;2023-03-01T07:20:25;2.80;99.90
4811;DHT22;2419;51.276;6.472;2023-03-01T07:22:54;3.90;99.90
4811;DHT22;2419;51.276;6.472;2023-03-01T07:25:23;3.80;99.30
4811;DHT22;2419;51.276;6.472;2023-03-01T07:27:53;3.40;99.90
4811;DHT22;2419;51.276;6.472;2023-03-01T07:30:21;3.40;99.50
4811;DHT22;2419;51.276;6.472;2023-03-01T07:32:52;3.50;99.90
4811;DHT22;2419;51.276;6.472;2023-03-01T07:35:22;4.60;98.00
4811;DHT22;2419;51.276;6.472;2023-03-01T07:37:50;5.40;96.90
4811;DHT22;2419;51.276;6.472;2023-03-01T07:40:19;5.70;95.50
4811;DHT22;2419;51.276;6.472;2023-03-01T07:42:47;4.90;96.90
4811;DHT22;2419;51.276;6.472;2023-03-01T07:45:16;5.80;95.00
4811;DHT22;2419;51.276;6.472;2023-03-01T07:47:44;6.70;93.90
4811;DHT22;2419;51.276;6.472;2023-03-01T07:50:12;7.00;92.10
4811;DHT22;2419;51.276;6.472;2023-03-01T07:52:44;6.80;92.10
4811;DHT22;2419;51.276;6.472;2023-03-01T07:55:12;7.40;91.20
4811;DHT22;2419;51.276;6.472;2023-03-01T07:57:40;7.50;90.30
4811;DHT22;2419;51.276;6.472;2023-03-01T08:00:11;7.50;89.80
4811;DHT22;2419;51.276;6.472;2023-03-01T08:02:40;7.10;91.30
4811;DHT22;2419;51.276;6.472;2023-03-01T08:05:09;7.70;90.20
4811;DHT22;2419;51.276;6.472;2023-03-01T08:07:37;7.60;90.30
4811;DHT22;2419;51.276;6.472;2023-03-01T08:10:06;7.50;90.40
4811;DHT22;2419;51.276;6.472;2023-03-01T08:12:34;6.90;90.20
4811;DHT22;2419;51.276;6.472;2023-03-01T08:15:02;7.60;90.40
4811;DHT22;2419;51.276;6.472;2023-03-01T08:17:30;7.60;88.70
4811;DHT22;2419;51.276;6.472;2023-03-01T08:20:00;6.00;90.50
4811;DHT22;2419;51.276;6.472;2023-03-01T08:22:28;5.30;92.10
4811;DHT22;2419;51.276;6.472;2023-03-01T08:24:57;5.20;92.60
4811;DHT22;2419;51.276;6.472;2023-03-01T08:27:25;5.30;92.70
4811;DHT22;2419;51.276;6.472;2023-03-01T08:29:53;5.90;92.10
4811;DHT22;2419;51.276;6.472;2023-03-01T08:32:21;6.50;90.90
4811;DHT22;2419;51.276;6.472;2023-03-01T08:34:49;6.40;91.20
4811;DHT22;2419;51.276;6.472;2023-03-01T08:37:18;6.10;90.80
4811;DHT22;2419;51.276;6.472;2023-03-01T08:39:47;6.90;90.30
4811;DHT22;2419;51.276;6.472;2023-03-01T08:42:15;7.70;88.70
4811;DHT22;2419;51.276;6.472;2023-03-01T08:44:43;7.50;86.10
4811;DHT22;2419;51.276;6.472;2023-03-01T08:47:12;7.30;87.10
4811;DHT22;2419;51.276;6.472;2023-03-01T08:49:41;7.40;87.00
4811;DHT22;2419;51.276;6.472;2023-03-01T08:52:09;7.40;86.40
4811;DHT22;2419;51.276;6.472;2023-03-01T08:54:38;7.80;86.10
4811;DHT22;2419;51.276;6.472;2023-03-01T08:57:06;8.10;84.20
4811;DHT22;2419;51.276;6.472;2023-03-01T08:59:36;7.90;81.90
4811;DHT22;2419;51.276;6.472;2023-03-01T09:02:05;7.20;86.00
4811;DHT22;2419;51.276;6.472;2023-03-01T09:04:33;6.80;86.10
4811;DHT22;2419;51.276;6.472;2023-03-01T09:07:01;6.90;87.40
4811;DHT22;2419;51.276;6.472;2023-03-01T09:09:29;6.60;88.70
4811;DHT22;2419;51.276;6.472;2023-03-01T09:11:59;6.00;89.50
4811;DHT22;2419;51.276;6.472;2023-03-01T09:14:27;6.00;88.50
4811;DHT22;2419;51.276;6.472;2023-03-01T09:16:55;5.70;89.50
4811;DHT22;2419;51.276;6.472;2023-03-01T09:19:24;5.90;88.10
4811;DHT22;2419;51.276;6.472;2023-03-01T09:21:53;6.20;89.30
4811;DHT22;2419;51.276;6.472;2023-03-01T09:24:23;5.40;90.70
4811;DHT22;2419;51.276;6.472;2023-03-01T09:26:53;5.20;90.80
4811;DHT22;2419;51.276;6.472;2023-03-01T09:29:23;7.00;88.20
4811;DHT22;2419;51.276;6.472;2023-03-01T09:31:52;7.10;85.10
4811;DHT22;2419;51.276;6.472;2023-03-01T09:34:22;5.90;88.00
4811;DHT22;2419;51.276;6.472;2023-03-01T09:36:50;5.60;89.60
4811;DHT22;2419;51.276;6.472;2023-03-01T09:39:19;5.60;90.00
4811;DHT22;2419;51.276;6.472;2023-03-01T09:41:53;6.10;88.90
4811;DHT22;2419;51.276;6.472;2023-03-01T09:44:33;6.20;87.40
4811;DHT22;2419;51.276;6.472;2023-03-01T09:47:04;6.60;86.40
4811;DHT22;2419;51.276;6.472;2023-03-01T09:49:35;7.20;87.10
4811;DHT22;2419;51.276;6.472;2023-03-01T09:52:12;8.00;84.30
4811;DHT22;2419;51.276;6.472;2023-03-01T09:54:51;7.60;83.70
4811;DHT22;2419;51.276;6.472;2023-03-01T09:57:26;7.70;84.10
4811;DHT22;2419;51.276;6.472;2023-03-01T10:00:07;8.30;84.30
4811;DHT22;2419;51.276;6.472;2023-03-01T10:02:41;8.70;82.40
4811;DHT22;2419;51.276;6.472;2023-03-01T10:05:26;8.30;81.20
4811;DHT22;2419;51.276;6.472;2023-03-01T10:08:02;8.00;81.60
4811;DHT22;2419;51.276;6.472;2023-03-01T10:10:36;7.60;81.50
4811;DHT22;2419;51.276;6.472;2023-03-01T10:13:10;8.30;81.70
4811;DHT22;2419;51.276;6.472;2023-03-01T10:15:47;8.70;80.80
4811;DHT22;2419;51.276;6.472;2023-03-01T10:18:18;8.60;79.90
4811;DHT22;2419;51.276;6.472;2023-03-01T10:20:53;8.50;79.80
4811;DHT22;2419;51.276;6.472;2023-03-01T10:23:23;8.80;77.50
4811;DHT22;2419;51.276;6.472;2023-03-01T10:26:02;9.00;77.00
4811;DHT22;2419;51.276;6.472;2023-03-01T10:28:45;9.00;77.30
4811;DHT22;2419;51.276;6.472;2023-03-01T10:31:20;9.60;74.60
4811;DHT22;2419;51.276;6.472;2023-03-01T10:33:50;10.00;74.20
4811;DHT22;2419;51.276;6.472;2023-03-01T10:36:21;9.00;76.40
4811;DHT22;2419;51.276;6.472;2023-03-01T10:38:51;9.50;74.20
4811;DHT22;2419;51.276;6.472;2023-03-01T10:41:22;10.10;74.40
4811;DHT22;2419;51.276;6.472;2023-03-01T10:43:52;10.50;70.60
4811;DHT22;2419;51.276;6.472;2023-03-01T10:46:28;11.10;71.10
4811;DHT22;2419;51.276;6.472;2023-03-01T10:49:10;10.50;70.40
4811;DHT22;2419;51.276;6.472;2023-03-01T10:51:40;10.80;69.10
4811;DHT22;2419;51.276;6.472;2023-03-01T10:54:17;10.80;68.20
4811;DHT22;2419;51.276;6.472;2023-03-01T10:56:47;10.30;68.10
4811;DHT22;2419;51.276;6.472;2023-03-01T10:59:24;11.30;68.00
4811;DHT22;2419;51.276;6.472;2023-03-01T11:02:15;12.20;63.90
4811;DHT22;2419;51.276;6.472;2023-03-01T11:04:57;11.70;63.20
4811;DHT22;2419;51.276;6.472;2023-03-01T11:07:26;11.80;62.80
4811;DHT22;2419;51.276;6.472;2023-03-01T11:09:54;12.30;61.00
4811;DHT22;2419;51.276;6.472;2023-03-01T11:12:23;11.70;60.20
4811;DHT22;2419;51.276;6.472;2023-03-01T11:14:53;11.70;60.20
4811;DHT22;2419;51.276;6.472;2023-03-01T11:17:28;12.10;61.30
4811;DHT22;2419;51.276;6.472;2023-03-01T11:20:16;12.00;60.50
4811;DHT22;2419;51.276;6.472;2023-03-01T11:22:49;11.20;59.70
4811;DHT22;2419;51.276;6.472;2023-03-01T11:25:20;12.50;60.20
4811;DHT22;2419;51.276;6.472;2023-03-01T11:27:52;13.10;58.00
4811;DHT22;2419;51.276;6.472;2023-03-01T11:30:24;12.50;57.40
4811;DHT22;2419;51.276;6.472;2023-03-01T11:33:13;12.00;57.50
4811;DHT22;2419;51.276;6.472;2023-03-01T11:35:47;11.80;57.80
4811;DHT22;2419;51.276;6.472;2023-03-01T11:38:22;12.10;57.40
4811;DHT22;2419;51.276;6.472;2023-03-01T11:40:54;12.00;56.00
4811;DHT22;2419;51.276;6.472;2023-03-01T11:43:33;11.70;56.10
4811;DHT22;2419;51.276;6.472;2023-03-01T11:46:26;12.40;56.70
4811;DHT22;2419;51.276;6.472;2023-03-01T11:49:05;12.50;55.40
4811;DHT22;2419;51.276;6.472;2023-03-01T11:51:48;12.60;57.00
4811;DHT22;2419;51.276;6.472;2023-03-01T11:54:28;11.70;57.50
4811;DHT22;2419;51.276;6.472;2023-03-01T11:57:01;11.90;57.70
4811;DHT22;2419;51.276;6.472;2023-03-01T11:59:49;12.30;56.10
4811;DHT22;2419;51.276;6.472;2023-03-01T12:02:51;12.30;55.80
4811;DHT22;2419;51.276;6.472;2023-03-01T12:08:32;12.00;56.30
4811;DHT22;2419;51.276;6.472;2023-03-01T12:11:10;12.70;55.40
4811;DHT22;2419;51.276;6.472;2023-03-01T12:13:57;12.60;55.60
4811;DHT22;2419;51.276;6.472;2023-03-01T12:19:49;13.00;53.80
4811;DHT22;2419;51.276;6.472;2023-03-01T12:22:29;13.10;54.80
4811;DHT22;2419;51.276;6.472;2023-03-01T12:25:07;13.20;54.20
4811;DHT22;2419;51.276;6.472;2023-03-01T12:27:51;13.00;51.10
4811;DHT22;2419;51.276;6.472;2023-03-01T12:30:31;12.40;52.20
4811;DHT22;2419;51.276;6.472;2023-03-01T12:33:14;12.10;54.30
4811;DHT22;2419;51.276;6.472;2023-03-01T12:36:02;12.10;53.40
4811;DHT22;2419;51.276;6.472;2023-03-01T12:38:42;11.60;54.70
4811;DHT22;2419;51.276;6.472;2023-03-01T12:41:46;12.10;54.60
4811;DHT22;2419;51.276;6.472;2023-03-01T12:44:39;12.20;55.40
4811;DHT22;2419;51.276;6.472;2023-03-01T12:47:20;12.80;53.10
4811;DHT22;2419;51.276;6.472;2023-03-01T12:49:54;12.00;54.50
4811;DHT22;2419;51.276;6.472;2023-03-01T12:52:29;11.70;55.40
4811;DHT22;2419;51.276;6.472;2023-03-01T12:55:08;12.50;55.90
4811;DHT22;2419;51.276;6.472;2023-03-01T12:57:46;11.40;54.50
4811;DHT22;2419;51.276;6.472;2023-03-01T13:00:24;11.30;56.20
4811;DHT22;2419;51.276;6.472;2023-03-01T13:02:59;12.20;53.70
4811;DHT22;2419;51.276;6.472;2023-03-01T13:05:39;11.70;55.40
4811;DHT22;2419;51.276;6.472;2023-03-01T13:08:15;12.10;54.40
4811;DHT22;2419;51.276;6.472;2023-03-01T13:10:50;11.20;54.40
4811;DHT22;2419;51.276;6.472;2023-03-01T13:13:21;11.30;56.30
4811;DHT22;2419;51.276;6.472;2023-03-01T13:15:50;11.20;55.00
4811;DHT22;2419;51.276;6.472;2023-03-01T13:18:29;11.50;55.60
4811;DHT22;2419;51.276;6.472;2023-03-01T13:21:00;11.10;56.50
4811;DHT22;2419;51.276;6.472;2023-03-01T13:23:32;10.80;55.60
4811;DHT22;2419;51.276;6.472;2023-03-01T13:26:11;10.60;54.90
4811;DHT22;2419;51.276;6.472;2023-03-01T13:28:51;10.40;56.30
4811;DHT22;2419;51.276;6.472;2023-03-01T13:34:49;10.00;57.30
4811;DHT22;2419;51.276;6.472;2023-03-01T13:37:27;9.80;56.50
4811;DHT22;2419;51.276;6.472;2023-03-01T13:40:03;9.90;55.80
4811;DHT22;2419;51.276;6.472;2023-03-01T13:42:42;9.80;56.90
4811;DHT22;2419;51.276;6.472;2023-03-01T13:45:36;10.20;58.70
4811;DHT22;2419;51.276;6.472;2023-03-01T13:48:14;10.20;59.10
4811;DHT22;2419;51.276;6.472;2023-03-01T13:50:48;9.80;58.30
4811;DHT22;2419;51.276;6.472;2023-03-01T13:53:19;10.00;59.10
4811;DHT22;2419;51.276;6.472;2023-03-01T13:55:51;9.60;58.90
4811;DHT22;2419;51.276;6.472;2023-03-01T13:58:25;9.60;58.70
4811;DHT22;2419;51.276;6.472;2023-03-01T14:00:59;9.70;59.80
4811;DHT22;2419;51.276;6.472;2023-03-01T14:03:28;9.60;58.50
4811;DHT22;2419;51.276;6.472;2023-03-01T14:06:08;9.40;59.60
4811;DHT22;2419;51.276;6.472;2023-03-01T14:08:43;9.30;60.00
4811;DHT22;2419;51.276;6.472;2023-03-01T14:14:29;9.00;61.90
4811;DHT22;2419;51.276;6.472;2023-03-01T14:17:06;8.80;61.40
4811;DHT22;2419;51.276;6.472;2023-03-01T14:19:36;8.60;61.80
4811;DHT22;2419;51.276;6.472;2023-03-01T14:22:21;8.50;60.80
4811;DHT22;2419;51.276;6.472;2023-03-01T14:24:51;8.50;62.10
4811;DHT22;2419;51.276;6.472;2023-03-01T14:27:19;8.50;62.00
4811;DHT22;2419;51.276;6.472;2023-03-01T14:29:56;8.40;62.10
4811;DHT22;2419;51.276;6.472;2023-03-01T14:32:26;8.30;61.60
4811;DHT22;2419;51.276;6.472;2023-03-01T14:34:56;8.40;62.40
4811;DHT22;2419;51.276;6.472;2023-03-01T14:37:26;8.50;62.30
4811;DHT22;2419;51.276;6.472;2023-03-01T14:39:56;8.30;61.80
4811;DHT22;2419;51.276;6.472;2023-03-01T14:42:28;8.20;61.70
4811;DHT22;2419;51.276;6.472;2023-03-01T14:45:00;8.10;61.50
4811;DHT22;2419;51.276;6.472;2023-03-01T14:47:32;8.10;61.90
4811;DHT22;2419;51.276;6.472;2023-03-01T14:50:02;8.00;63.00
4811;DHT22;2419;51.276;6.472;2023-03-01T14:52:35;7.90;62.80
4811;DHT22;2419;51.276;6.472;2023-03-01T14:55:06;8.00;62.80
4811;DHT22;2419;51.276;6.472;2023-03-01T14:57:35;8.00;63.70
4811;DHT22;2419;51.276;6.472;2023-03-01T15:00:07;8.00;64.20
4811;DHT22;2419;51.276;6.472;2023-03-01T15:02:35;7.80;63.90
4811;DHT22;2419;51.276;6.472;2023-03-01T15:05:06;7.80;63.70
4811;DHT22;2419;51.276;6.472;2023-03-01T15:07:38;7.70;63.30
4811;DHT22;2419;51.276;6.472;2023-03-01T15:10:18;7.70;64.00
4811;DHT22;2419;51.276;6.472;2023-03-01T15:12:47;7.60;65.10
4811;DHT22;2419;51.276;6.472;2023-03-01T15:15:33;7.60;64.60
4811;DHT22;2419;51.276;6.472;2023-03-01T15:18:05;7.60;64.70
4811;DHT22;2419;51.276;6.472;2023-03-01T15:20:35;7.60;65.20
4811;DHT22;2419;51.276;6.472;2023-03-01T15:23:03;7.60;66.30
4811;DHT22;2419;51.276;6.472;2023-03-01T15:25:33;7.70;65.40
4811;DHT22;2419;51.276;6.472;2023-03-01T15:28:02;7.60;67.10
4811;DHT22;2419;51.276;6.472;2023-03-01T15:30:34;7.50;64.80
4811;DHT22;2419;51.276;6.472;2023-03-01T15:33:28;7.50;65.80
4811;DHT22;2419;51.276;6.472;2023-03-01T15:35:58;7.30;66.10
4811;DHT22;2419;51.276;6.472;2023-03-01T15:38:34;7.30;66.00
4811;DHT22;2419;51.276;6.472;2023-03-01T15:41:22;7.20;66.50
4811;DHT22;2419;51.276;6.472;2023-03-01T15:43:51;7.30;68.80
4811;DHT22;2419;51.276;6.472;2023-03-01T15:46:26;7.20;66.60
4811;DHT22;2419;51.276;6.472;2023-03-01T15:48:58;7.20;65.70
4811;DHT22;2419;51.276;6.472;2023-03-01T15:51:32;7.10;66.50
4811;DHT22;2419;51.276;6.472;2023-03-01T15:54:04;7.00;67.10
4811;DHT22;2419;51.276;6.472;2023-03-01T15:56:32;7.00;66.90
4811;DHT22;2419;51.276;6.472;2023-03-01T15:59:02;7.00;68.10
4811;DHT22;2419;51.276;6.472;2023-03-01T16:01:31;7.00;67.30
4811;DHT22;2419;51.276;6.472;2023-03-01T16:04:01;6.90;66.90
4811;DHT22;2419;51.276;6.472;2023-03-01T16:06:29;6.80;67.60
4811;DHT22;2419;51.276;6.472;2023-03-01T16:08:58;6.80;67.90
4811;DHT22;2419;51.276;6.472;2023-03-01T16:11:26;6.80;68.80
4811;DHT22;2419;51.276;6.472;2023-03-01T16:13:55;6.80;67.20
4811;DHT22;2419;51.276;6.472;2023-03-01T16:16:23;6.70;68.80
4811;DHT22;2419;51.276;6.472;2023-03-01T16:18:54;6.70;69.30
4811;DHT22;2419;51.276;6.472;2023-03-01T16:21:24;6.60;68.80
4811;DHT22;2419;51.276;6.472;2023-03-01T16:23:52;6.60;68.90
4811;DHT22;2419;51.276;6.472;2023-03-01T16:26:21;6.50;70.30
4811;DHT22;2419;51.276;6.472;2023-03-01T16:28:49;6.50;70.70
4811;DHT22;2419;51.276;6.472;2023-03-01T16:31:19;6.40;71.30
4811;DHT22;2419;51.276;6.472;2023-03-01T16:33:48;6.30;71.50
4811;DHT22;2419;51.276;6.472;2023-03-01T16:36:20;6.30;71.60
4811;DHT22;2419;51.276;6.472;2023-03-01T16:38:51;6.30;71.90
4811;DHT22;2419;51.276;6.472;2023-03-01T16:41:23;6.20;72.50
4811;DHT22;2419;51.276;6.472;2023-03-01T16:43:51;6.20;72.10
4811;DHT22;2419;51.276;6.472;2023-03-01T16:46:21;6.10;71.60
4811;DHT22;2419;51.276;6.472;2023-03-01T16:48:50;6.00;72.50
4811;DHT22;2419;51.276;6.472;2023-03-01T16:51:21;6.00;72.90